sensor_id;sensor_type;location;lat;lon;timestamp;P1;durP1;ratioP1;P2;durP2;ratioP2
31906;SDS011;18455;50.858;13.662;2023-07-16T00:02:59;4.90;;;3.33;;
31906;SDS011;18455;50.858;13.662;2023-07-16T00:08:00;5.22;;;3.22;;
31906;SDS011;18455;50.858;13.662;2023-07-16T00:13:00;5.35;;;3.35;;
31906;SDS011;18455;50.858;13.662;2023-07-16T00:18:01;4.03;;;3.63;;
31906;SDS011;18455;50.858;13.662;2023-07-16T00:23:01;6.43;;;3.35;;
31906;SDS011;18455;50.858;13.662;2023-07-16T00:28:01;5.78;;;2.95;;
31906;SDS011;18455;50.858;13.662;2023-07-16T00:33:02;3.78;;;2.83;;
31906;SDS011;18455;50.858;13.662;2023-07-16T00:38:03;10.20;;;3.33;;
31906;SDS011;18455;50.858;13.662;2023-07-16T00:43:03;6.03;;;2.97;;
31906;SDS011;18455;50.858;13.662;2023-07-16T00:48:04;7.35;;;3.05;;
31906;SDS011;18455;50.858;13.662;2023-07-16T00:53:05;8.38;;;3.60;;
31906;SDS011;18455;50.858;13.662;2023-07-16T00:58:06;5.80;;;3.25;;
31906;SDS011;18455;50.858;13.662;2023-07-16T01:03:08;6.57;;;2.80;;
31906;SDS011;18455;50.858;13.662;2023-07-16T01:08:09;3.33;;;2.25;;
31906;SDS011;18455;50.858;13.662;2023-07-16T01:13:10;2.38;;;1.45;;
31906;SDS011;18455;50.858;13.662;2023-07-16T01:18:10;1.30;;;1.20;;
31906;SDS011;18455;50.858;13.662;2023-07-16T01:23:30;3.70;;;1.20;;
31906;SDS011;18455;50.858;13.662;2023-07-16T01:28:53;2.70;;;1.30;;
31906;SDS011;18455;50.858;13.662;2023-07-16T01:34:09;5.68;;;1.50;;
31906;SDS011;18455;50.858;13.662;2023-07-16T01:39:10;2.55;;;1.88;;
31906;SDS011;18455;50.858;13.662;2023-07-16T01:44:11;1.40;;;1.25;;
31906;SDS011;18455;50.858;13.662;2023-07-16T01:49:11;4.70;;;1.60;;
31906;SDS011;18455;50.858;13.662;2023-07-16T01:54:13;1.50;;;1.40;;
31906;SDS011;18455;50.858;13.662;2023-07-16T01:59:14;2.35;;;1.85;;
31906;SDS011;18455;50.858;13.662;2023-07-16T02:04:14;2.55;;;1.80;;
31906;SDS011;18455;50.858;13.662;2023-07-16T02:09:14;3.00;;;1.50;;
31906;SDS011;18455;50.858;13.662;2023-07-16T02:14:16;2.38;;;1.45;;
31906;SDS011;18455;50.858;13.662;2023-07-16T02:19:17;2.58;;;1.30;;
31906;SDS011;18455;50.858;13.662;2023-07-16T02:24:17;8.02;;;1.50;;
31906;SDS011;18455;50.858;13.662;2023-07-16T02:29:17;4.03;;;1.42;;
31906;SDS011;18455;50.858;13.662;2023-07-16T02:34:18;3.78;;;1.20;;
31906;SDS011;18455;50.858;13.662;2023-07-16T02:39:19;7.90;;;1.90;;
31906;SDS011;18455;50.858;13.662;2023-07-16T02:44:19;1.50;;;1.20;;
31906;SDS011;18455;50.858;13.662;2023-07-16T02:49:19;5.57;;;1.60;;
31906;SDS011;18455;50.858;13.662;2023-07-16T02:54:20;1.80;;;1.70;;
31906;SDS011;18455;50.858;13.662;2023-07-16T02:59:20;3.05;;;2.05;;
31906;SDS011;18455;50.858;13.662;2023-07-16T03:04:20;4.60;;;1.80;;
31906;SDS011;18455;50.858;13.662;2023-07-16T03:09:21;2.53;;;1.83;;
31906;SDS011;18455;50.858;13.662;2023-07-16T03:14:21;4.13;;;2.15;;
31906;SDS011;18455;50.858;13.662;2023-07-16T03:19:22;3.33;;;2.10;;
31906;SDS011;18455;50.858;13.662;2023-07-16T03:24:22;6.97;;;2.10;;
31906;SDS011;18455;50.858;13.662;2023-07-16T03:29:23;2.80;;;2.40;;
31906;SDS011;18455;50.858;13.662;2023-07-16T03:34:24;4.30;;;2.65;;
31906;SDS011;18455;50.858;13.662;2023-07-16T03:39:24;4.53;;;2.85;;
31906;SDS011;18455;50.858;13.662;2023-07-16T03:44:28;4.15;;;2.50;;
31906;SDS011;18455;50.858;13.662;2023-07-16T03:49:29;6.30;;;3.17;;
31906;SDS011;18455;50.858;13.662;2023-07-16T03:54:29;6.75;;;3.28;;
31906;SDS011;18455;50.858;13.662;2023-07-16T03:59:30;5.47;;;2.97;;
31906;SDS011;18455;50.858;13.662;2023-07-16T04:04:30;4.65;;;2.72;;
31906;SDS011;18455;50.858;13.662;2023-07-16T04:09:31;4.63;;;3.15;;
31906;SDS011;18455;50.858;13.662;2023-07-16T04:14:31;5.28;;;2.70;;
31906;SDS011;18455;50.858;13.662;2023-07-16T04:19:32;4.25;;;2.75;;
31906;SDS011;18455;50.858;13.662;2023-07-16T04:24:32;4.78;;;2.90;;
31906;SDS011;18455;50.858;13.662;2023-07-16T04:29:32;5.72;;;3.00;;
31906;SDS011;18455;50.858;13.662;2023-07-16T04:34:33;4.13;;;3.10;;
31906;SDS011;18455;50.858;13.662;2023-07-16T04:39:33;6.00;;;3.05;;
31906;SDS011;18455;50.858;13.662;2023-07-16T04:44:34;5.97;;;3.30;;
31906;SDS011;18455;50.858;13.662;2023-07-16T04:49:34;3.70;;;2.95;;
31906;SDS011;18455;50.858;13.662;2023-07-16T04:54:36;5.75;;;3.03;;
31906;SDS011;18455;50.858;13.662;2023-07-16T04:59:37;3.38;;;2.83;;
31906;SDS011;18455;50.858;13.662;2023-07-16T05:04:37;3.03;;;2.72;;
31906;SDS011;18455;50.858;13.662;2023-07-16T05:09:38;3.60;;;2.88;;
31906;SDS011;18455;50.858;13.662;2023-07-16T05:14:45;3.40;;;2.70;;
31906;SDS011;18455;50.858;13.662;2023-07-16T05:19:46;2.50;;;2.30;;
31906;SDS011;18455;50.858;13.662;2023-07-16T05:24:47;2.70;;;2.50;;
31906;SDS011;18455;50.858;13.662;2023-07-16T05:29:47;3.83;;;2.80;;
31906;SDS011;18455;50.858;13.662;2023-07-16T05:34:48;3.90;;;2.70;;
31906;SDS011;18455;50.858;13.662;2023-07-16T05:39:48;2.83;;;2.33;;
31906;SDS011;18455;50.858;13.662;2023-07-16T05:44:49;4.00;;;2.33;;
31906;SDS011;18455;50.858;13.662;2023-07-16T05:49:49;3.90;;;2.38;;
31906;SDS011;18455;50.858;13.662;2023-07-16T05:54:49;1.73;;;1.63;;
31906;SDS011;18455;50.858;13.662;2023-07-16T05:59:50;1.73;;;1.52;;
31906;SDS011;18455;50.858;13.662;2023-07-16T06:04:50;2.20;;;1.83;;
31906;SDS011;18455;50.858;13.662;2023-07-16T06:09:50;1.60;;;1.50;;
31906;SDS011;18455;50.858;13.662;2023-07-16T06:14:51;0.90;;;0.90;;
31906;SDS011;18455;50.858;13.662;2023-07-16T06:19:51;3.63;;;1.23;;
31906;SDS011;18455;50.858;13.662;2023-07-16T06:24:52;2.90;;;1.40;;
31906;SDS011;18455;50.858;13.662;2023-07-16T06:29:52;1.65;;;1.30;;
31906;SDS011;18455;50.858;13.662;2023-07-16T06:34:52;3.33;;;1.40;;
31906;SDS011;18455;50.858;13.662;2023-07-16T06:39:53;1.95;;;1.60;;
31906;SDS011;18455;50.858;13.662;2023-07-16T06:44:53;2.97;;;1.48;;
31906;SDS011;18455;50.858;13.662;2023-07-16T06:49:53;2.42;;;1.30;;
31906;SDS011;18455;50.858;13.662;2023-07-16T06:54:54;1.77;;;1.27;;
31906;SDS011;18455;50.858;13.662;2023-07-16T06:59:55;1.75;;;1.48;;
31906;SDS011;18455;50.858;13.662;2023-07-16T07:04:55;1.95;;;1.38;;
31906;SDS011;18455;50.858;13.662;2023-07-16T07:09:55;1.80;;;1.70;;
31906;SDS011;18455;50.858;13.662;2023-07-16T07:14:56;1.70;;;1.50;;
31906;SDS011;18455;50.858;13.662;2023-07-16T07:19:56;2.70;;;1.50;;
31906;SDS011;18455;50.858;13.662;2023-07-16T07:24:57;1.70;;;1.58;;
31906;SDS011;18455;50.858;13.662;2023-07-16T07:29:57;1.50;;;1.40;;
31906;SDS011;18455;50.858;13.662;2023-07-16T07:34:57;3.22;;;1.23;;
31906;SDS011;18455;50.858;13.662;2023-07-16T07:39:58;3.25;;;1.60;;
31906;SDS011;18455;50.858;13.662;2023-07-16T07:44:58;1.60;;;1.40;;
31906;SDS011;18455;50.858;13.662;2023-07-16T07:49:59;2.80;;;1.60;;
31906;SDS011;18455;50.858;13.662;2023-07-16T07:54:59;3.47;;;1.80;;
31906;SDS011;18455;50.858;13.662;2023-07-16T08:00:00;2.55;;;1.70;;
31906;SDS011;18455;50.858;13.662;2023-07-16T08:05:00;2.15;;;1.60;;
31906;SDS011;18455;50.858;13.662;2023-07-16T08:10:00;1.85;;;1.63;;
31906;SDS011;18455;50.858;13.662;2023-07-16T08:15:01;2.28;;;1.63;;
31906;SDS011;18455;50.858;13.662;2023-07-16T08:20:01;2.20;;;1.45;;
31906;SDS011;18455;50.858;13.662;2023-07-16T08:25:02;4.88;;;1.98;;
31906;SDS011;18455;50.858;13.662;2023-07-16T08:30:03;2.83;;;1.88;;
31906;SDS011;18455;50.858;13.662;2023-07-16T08:35:04;2.17;;;1.48;;
31906;SDS011;18455;50.858;13.662;2023-07-16T08:40:05;4.95;;;1.77;;
31906;SDS011;18455;50.858;13.662;2023-07-16T08:45:09;4.18;;;1.58;;
31906;SDS011;18455;50.858;13.662;2023-07-16T08:50:10;3.72;;;1.73;;
31906;SDS011;18455;50.858;13.662;2023-07-16T08:55:11;2.65;;;1.88;;
31906;SDS011;18455;50.858;13.662;2023-07-16T09:00:12;4.93;;;1.90;;
31906;SDS011;18455;50.858;13.662;2023-07-16T09:05:13;2.92;;;1.73;;
31906;SDS011;18455;50.858;13.662;2023-07-16T09:10:14;2.95;;;1.88;;
31906;SDS011;18455;50.858;13.662;2023-07-16T09:15:18;4.13;;;1.58;;
31906;SDS011;18455;50.858;13.662;2023-07-16T09:20:19;3.03;;;1.77;;
31906;SDS011;18455;50.858;13.662;2023-07-16T09:25:25;3.95;;;1.88;;
31906;SDS011;18455;50.858;13.662;2023-07-16T09:30:31;2.25;;;1.70;;
31906;SDS011;18455;50.858;13.662;2023-07-16T09:35:33;3.45;;;2.15;;
31906;SDS011;18455;50.858;13.662;2023-07-16T09:40:36;3.40;;;1.80;;
31906;SDS011;18455;50.858;13.662;2023-07-16T09:45:37;4.38;;;2.00;;
31906;SDS011;18455;50.858;13.662;2023-07-16T09:50:38;3.63;;;2.13;;
31906;SDS011;18455;50.858;13.662;2023-07-16T09:55:38;5.22;;;1.55;;
31906;SDS011;18455;50.858;13.662;2023-07-16T10:00:39;3.97;;;1.65;;
31906;SDS011;18455;50.858;13.662;2023-07-16T10:05:40;2.35;;;1.48;;
31906;SDS011;18455;50.858;13.662;2023-07-16T10:10:45;6.70;;;1.75;;
31906;SDS011;18455;50.858;13.662;2023-07-16T10:15:55;3.85;;;1.88;;
31906;SDS011;18455;50.858;13.662;2023-07-16T10:21:03;7.63;;;1.85;;
31906;SDS011;18455;50.858;13.662;2023-07-16T10:26:09;4.57;;;1.90;;
31906;SDS011;18455;50.858;13.662;2023-07-16T10:31:18;5.88;;;2.22;;
31906;SDS011;18455;50.858;13.662;2023-07-16T10:36:21;4.78;;;1.73;;
31906;SDS011;18455;50.858;13.662;2023-07-16T10:41:21;6.32;;;2.08;;
31906;SDS011;18455;50.858;13.662;2023-07-16T10:46:22;4.18;;;1.65;;
31906;SDS011;18455;50.858;13.662;2023-07-16T10:51:25;4.18;;;1.90;;
31906;SDS011;18455;50.858;13.662;2023-07-16T10:56:26;2.08;;;1.77;;
31906;SDS011;18455;50.858;13.662;2023-07-16T11:01:28;4.10;;;2.03;;
31906;SDS011;18455;50.858;13.662;2023-07-16T11:06:30;6.38;;;1.85;;
31906;SDS011;18455;50.858;13.662;2023-07-16T11:11:30;4.35;;;1.80;;
31906;SDS011;18455;50.858;13.662;2023-07-16T11:16:35;6.25;;;1.60;;
31906;SDS011;18455;50.858;13.662;2023-07-16T11:21:36;4.47;;;1.90;;
31906;SDS011;18455;50.858;13.662;2023-07-16T11:26:37;3.38;;;2.15;;
31906;SDS011;18455;50.858;13.662;2023-07-16T11:31:38;6.88;;;2.05;;
31906;SDS011;18455;50.858;13.662;2023-07-16T11:36:39;6.50;;;1.60;;
31906;SDS011;18455;50.858;13.662;2023-07-16T11:41:39;3.65;;;1.80;;
31906;SDS011;18455;50.858;13.662;2023-07-16T11:46:40;9.07;;;2.05;;
31906;SDS011;18455;50.858;13.662;2023-07-16T11:51:40;4.20;;;2.17;;
31906;SDS011;18455;50.858;13.662;2023-07-16T11:56:43;3.17;;;1.70;;
31906;SDS011;18455;50.858;13.662;2023-07-16T12:01:43;3.03;;;1.90;;
31906;SDS011;18455;50.858;13.662;2023-07-16T12:06:43;2.63;;;1.70;;
31906;SDS011;18455;50.858;13.662;2023-07-16T12:11:44;3.92;;;1.83;;
31906;SDS011;18455;50.858;13.662;2023-07-16T12:16:44;3.00;;;1.90;;
31906;SDS011;18455;50.858;13.662;2023-07-16T12:21:45;4.55;;;1.58;;
31906;SDS011;18455;50.858;13.662;2023-07-16T12:26:45;4.20;;;1.98;;
31906;SDS011;18455;50.858;13.662;2023-07-16T12:31:45;2.42;;;1.75;;
31906;SDS011;18455;50.858;13.662;2023-07-16T12:36:46;3.05;;;1.80;;
31906;SDS011;18455;50.858;13.662;2023-07-16T12:41:46;4.00;;;1.55;;
31906;SDS011;18455;50.858;13.662;2023-07-16T12:46:47;3.55;;;2.03;;
31906;SDS011;18455;50.858;13.662;2023-07-16T12:51:47;3.20;;;1.85;;
31906;SDS011;18455;50.858;13.662;2023-07-16T12:56:47;4.40;;;1.90;;
31906;SDS011;18455;50.858;13.662;2023-07-16T13:01:48;4.57;;;2.10;;
31906;SDS011;18455;50.858;13.662;2023-07-16T13:06:48;3.72;;;1.90;;
31906;SDS011;18455;50.858;13.662;2023-07-16T13:11:49;3.45;;;1.77;;
31906;SDS011;18455;50.858;13.662;2023-07-16T13:16:49;6.07;;;2.13;;
31906;SDS011;18455;50.858;13.662;2023-07-16T13:21:49;5.22;;;1.90;;
31906;SDS011;18455;50.858;13.662;2023-07-16T13:26:50;3.15;;;1.88;;
31906;SDS011;18455;50.858;13.662;2023-07-16T13:31:50;3.20;;;1.92;;
31906;SDS011;18455;50.858;13.662;2023-07-16T13:36:50;5.80;;;1.98;;
31906;SDS011;18455;50.858;13.662;2023-07-16T13:41:51;2.27;;;1.90;;
31906;SDS011;18455;50.858;13.662;2023-07-16T13:46:51;3.53;;;2.05;;
31906;SDS011;18455;50.858;13.662;2023-07-16T13:51:51;5.53;;;2.30;;
31906;SDS011;18455;50.858;13.662;2023-07-16T13:56:52;4.93;;;2.10;;
31906;SDS011;18455;50.858;13.662;2023-07-16T14:01:59;2.57;;;1.87;;
31906;SDS011;18455;50.858;13.662;2023-07-16T14:07:00;4.05;;;1.77;;
31906;SDS011;18455;50.858;13.662;2023-07-16T14:12:01;4.05;;;1.83;;
31906;SDS011;18455;50.858;13.662;2023-07-16T14:17:01;5.45;;;1.90;;
31906;SDS011;18455;50.858;13.662;2023-07-16T14:22:02;7.38;;;2.20;;
31906;SDS011;18455;50.858;13.662;2023-07-16T14:27:02;4.25;;;1.70;;
31906;SDS011;18455;50.858;13.662;2023-07-16T14:32:03;2.38;;;1.63;;
31906;SDS011;18455;50.858;13.662;2023-07-16T14:37:04;5.07;;;1.75;;
31906;SDS011;18455;50.858;13.662;2023-07-16T14:42:04;5.65;;;1.92;;
31906;SDS011;18455;50.858;13.662;2023-07-16T14:47:05;3.27;;;1.80;;
31906;SDS011;18455;50.858;13.662;2023-07-16T14:52:06;2.78;;;1.55;;
31906;SDS011;18455;50.858;13.662;2023-07-16T14:57:06;2.10;;;1.80;;
31906;SDS011;18455;50.858;13.662;2023-07-16T15:02:07;4.95;;;2.10;;
31906;SDS011;18455;50.858;13.662;2023-07-16T15:07:07;3.50;;;1.90;;
31906;SDS011;18455;50.858;13.662;2023-07-16T15:12:08;3.83;;;1.85;;
31906;SDS011;18455;50.858;13.662;2023-07-16T15:17:08;5.50;;;1.92;;
31906;SDS011;18455;50.858;13.662;2023-07-16T15:22:09;3.70;;;1.57;;
31906;SDS011;18455;50.858;13.662;2023-07-16T15:27:10;2.75;;;1.70;;
31906;SDS011;18455;50.858;13.662;2023-07-16T15:32:10;3.35;;;2.10;;
31906;SDS011;18455;50.858;13.662;2023-07-16T15:37:10;4.77;;;1.50;;
31906;SDS011;18455;50.858;13.662;2023-07-16T15:42:11;4.40;;;1.90;;
31906;SDS011;18455;50.858;13.662;2023-07-16T15:47:11;3.50;;;1.80;;
31906;SDS011;18455;50.858;13.662;2023-07-16T15:52:11;9.93;;;2.13;;
31906;SDS011;18455;50.858;13.662;2023-07-16T15:57:12;4.70;;;2.13;;
31906;SDS011;18455;50.858;13.662;2023-07-16T16:02:12;3.97;;;1.60;;
31906;SDS011;18455;50.858;13.662;2023-07-16T16:07:12;5.80;;;2.20;;
31906;SDS011;18455;50.858;13.662;2023-07-16T16:12:13;5.13;;;1.60;;
31906;SDS011;18455;50.858;13.662;2023-07-16T16:17:13;4.32;;;1.50;;
31906;SDS011;18455;50.858;13.662;2023-07-16T16:22:14;5.47;;;2.00;;
31906;SDS011;18455;50.858;13.662;2023-07-16T16:27:14;4.70;;;2.20;;
31906;SDS011;18455;50.858;13.662;2023-07-16T16:32:16;5.43;;;1.70;;
31906;SDS011;18455;50.858;13.662;2023-07-16T16:37:16;3.38;;;1.90;;
31906;SDS011;18455;50.858;13.662;2023-07-16T16:42:16;3.63;;;1.60;;
31906;SDS011;18455;50.858;13.662;2023-07-16T16:47:17;5.13;;;1.90;;
31906;SDS011;18455;50.858;13.662;2023-07-16T16:52:17;2.93;;;1.83;;
31906;SDS011;18455;50.858;13.662;2023-07-16T16:57:18;3.97;;;1.93;;
31906;SDS011;18455;50.858;13.662;2023-07-16T17:02:19;6.85;;;2.30;;
31906;SDS011;18455;50.858;13.662;2023-07-16T17:07:20;8.45;;;1.80;;
31906;SDS011;18455;50.858;13.662;2023-07-16T17:12:21;4.20;;;2.08;;
31906;SDS011;18455;50.858;13.662;2023-07-16T17:17:23;3.72;;;1.73;;
31906;SDS011;18455;50.858;13.662;2023-07-16T17:22:23;3.75;;;2.08;;
31906;SDS011;18455;50.858;13.662;2023-07-16T17:27:23;5.60;;;2.10;;
31906;SDS011;18455;50.858;13.662;2023-07-16T17:32:24;6.60;;;2.17;;
31906;SDS011;18455;50.858;13.662;2023-07-16T17:37:24;3.75;;;2.10;;
31906;SDS011;18455;50.858;13.662;2023-07-16T17:42:24;7.47;;;2.20;;
31906;SDS011;18455;50.858;13.662;2023-07-16T17:47:25;4.07;;;1.92;;
31906;SDS011;18455;50.858;13.662;2023-07-16T17:52:25;3.83;;;2.05;;
31906;SDS011;18455;50.858;13.662;2023-07-16T17:57:26;3.83;;;1.88;;
31906;SDS011;18455;50.858;13.662;2023-07-16T18:02:26;4.22;;;1.92;;
31906;SDS011;18455;50.858;13.662;2023-07-16T18:07:26;6.13;;;1.98;;
31906;SDS011;18455;50.858;13.662;2023-07-16T18:12:27;2.88;;;2.00;;
31906;SDS011;18455;50.858;13.662;2023-07-16T18:17:27;2.95;;;2.13;;
31906;SDS011;18455;50.858;13.662;2023-07-16T18:22:28;5.38;;;2.13;;
31906;SDS011;18455;50.858;13.662;2023-07-16T18:27:28;4.63;;;1.83;;
31906;SDS011;18455;50.858;13.662;2023-07-16T18:32:29;6.30;;;2.30;;
31906;SDS011;18455;50.858;13.662;2023-07-16T18:37:29;3.97;;;1.85;;
31906;SDS011;18455;50.858;13.662;2023-07-16T18:42:30;5.40;;;1.90;;
31906;SDS011;18455;50.858;13.662;2023-07-16T18:47:31;6.43;;;2.28;;
31906;SDS011;18455;50.858;13.662;2023-07-16T18:52:32;4.40;;;2.38;;
31906;SDS011;18455;50.858;13.662;2023-07-16T18:57:33;5.05;;;2.03;;
31906;SDS011;18455;50.858;13.662;2023-07-16T19:02:33;4.95;;;2.38;;
31906;SDS011;18455;50.858;13.662;2023-07-16T19:07:34;4.88;;;2.38;;
31906;SDS011;18455;50.858;13.662;2023-07-16T19:12:34;4.68;;;2.40;;
31906;SDS011;18455;50.858;13.662;2023-07-16T19:17:34;5.22;;;2.90;;
31906;SDS011;18455;50.858;13.662;2023-07-16T19:22:35;5.07;;;2.60;;
31906;SDS011;18455;50.858;13.662;2023-07-16T19:27:35;6.13;;;2.65;;
31906;SDS011;18455;50.858;13.662;2023-07-16T19:32:35;5.97;;;2.70;;
31906;SDS011;18455;50.858;13.662;2023-07-16T19:37:36;6.95;;;2.63;;
31906;SDS011;18455;50.858;13.662;2023-07-16T19:42:36;6.88;;;2.92;;
31906;SDS011;18455;50.858;13.662;2023-07-16T19:47:37;3.55;;;2.70;;
31906;SDS011;18455;50.858;13.662;2023-07-16T19:52:39;7.03;;;3.00;;
31906;SDS011;18455;50.858;13.662;2023-07-16T19:57:40;5.18;;;2.83;;
31906;SDS011;18455;50.858;13.662;2023-07-16T20:02:43;5.30;;;2.67;;
31906;SDS011;18455;50.858;13.662;2023-07-16T20:07:43;7.55;;;2.50;;
31906;SDS011;18455;50.858;13.662;2023-07-16T20:12:43;4.30;;;2.75;;
31906;SDS011;18455;50.858;13.662;2023-07-16T20:17:45;6.18;;;2.75;;
31906;SDS011;18455;50.858;13.662;2023-07-16T20:22:46;4.18;;;2.92;;
31906;SDS011;18455;50.858;13.662;2023-07-16T20:27:52;7.13;;;2.75;;
31906;SDS011;18455;50.858;13.662;2023-07-16T20:32:53;4.22;;;2.83;;
31906;SDS011;18455;50.858;13.662;2023-07-16T20:37:55;4.20;;;2.80;;
31906;SDS011;18455;50.858;13.662;2023-07-16T20:42:56;5.70;;;2.92;;
31906;SDS011;18455;50.858;13.662;2023-07-16T20:47:58;4.13;;;2.88;;
31906;SDS011;18455;50.858;13.662;2023-07-16T20:52:58;7.55;;;3.38;;
31906;SDS011;18455;50.858;13.662;2023-07-16T20:57:59;7.20;;;3.08;;
31906;SDS011;18455;50.858;13.662;2023-07-16T21:03:03;7.03;;;2.70;;
31906;SDS011;18455;50.858;13.662;2023-07-16T21:08:05;4.90;;;2.40;;
31906;SDS011;18455;50.858;13.662;2023-07-16T21:13:06;5.88;;;2.80;;
31906;SDS011;18455;50.858;13.662;2023-07-16T21:18:06;3.47;;;2.60;;
31906;SDS011;18455;50.858;13.662;2023-07-16T21:23:07;7.38;;;2.65;;
31906;SDS011;18455;50.858;13.662;2023-07-16T21:28:07;4.47;;;2.72;;
31906;SDS011;18455;50.858;13.662;2023-07-16T21:33:08;7.38;;;2.80;;
31906;SDS011;18455;50.858;13.662;2023-07-16T21:38:09;8.32;;;2.90;;
31906;SDS011;18455;50.858;13.662;2023-07-16T21:43:09;4.43;;;2.50;;
31906;SDS011;18455;50.858;13.662;2023-07-16T21:48:10;4.65;;;3.30;;
31906;SDS011;18455;50.858;13.662;2023-07-16T21:53:13;3.50;;;2.60;;
31906;SDS011;18455;50.858;13.662;2023-07-16T21:58:14;6.78;;;3.22;;
31906;SDS011;18455;50.858;13.662;2023-07-16T22:03:14;7.72;;;3.17;;
31906;SDS011;18455;50.858;13.662;2023-07-16T22:08:15;9.95;;;2.83;;
31906;SDS011;18455;50.858;13.662;2023-07-16T22:13:15;6.25;;;2.85;;
31906;SDS011;18455;50.858;13.662;2023-07-16T22:18:15;7.30;;;3.00;;
31906;SDS011;18455;50.858;13.662;2023-07-16T22:23:17;3.85;;;2.80;;
31906;SDS011;18455;50.858;13.662;2023-07-16T22:28:17;4.88;;;2.92;;
31906;SDS011;18455;50.858;13.662;2023-07-16T22:33:17;4.32;;;3.03;;
31906;SDS011;18455;50.858;13.662;2023-07-16T22:38:18;8.43;;;2.92;;
31906;SDS011;18455;50.858;13.662;2023-07-16T22:43:18;7.25;;;3.05;;
31906;SDS011;18455;50.858;13.662;2023-07-16T22:48:18;5.00;;;2.88;;
31906;SDS011;18455;50.858;13.662;2023-07-16T22:53:19;7.78;;;3.05;;
31906;SDS011;18455;50.858;13.662;2023-07-16T22:58:20;5.85;;;3.05;;
31906;SDS011;18455;50.858;13.662;2023-07-16T23:03:20;5.68;;;3.35;;
31906;SDS011;18455;50.858;13.662;2023-07-16T23:08:21;5.65;;;3.05;;
31906;SDS011;18455;50.858;13.662;2023-07-16T23:13:21;4.70;;;3.10;;
31906;SDS011;18455;50.858;13.662;2023-07-16T23:18:21;3.78;;;2.92;;
31906;SDS011;18455;50.858;13.662;2023-07-16T23:23:22;6.20;;;3.55;;
31906;SDS011;18455;50.858;13.662;2023-07-16T23:28:23;6.75;;;3.10;;
31906;SDS011;18455;50.858;13.662;2023-07-16T23:33:23;8.18;;;3.25;;
31906;SDS011;18455;50.858;13.662;2023-07-16T23:38:23;4.47;;;3.40;;
31906;SDS011;18455;50.858;13.662;2023-07-16T23:43:24;5.72;;;3.53;;
31906;SDS011;18455;50.858;13.662;2023-07-16T23:48:24;6.65;;;3.20;;
31906;SDS011;18455;50.858;13.662;2023-07-16T23:53:25;7.22;;;3.25;;
31906;SDS011;18455;50.858;13.662;2023-07-16T23:58:25;4.82;;;3.00;;
